首页
METAR-TAF:

METAR-TAF

机场 :

出雲機場

出雲, 日本

纬度: 35-25N, 经度: 132-54E, 海拔: 2米

当前天气观测

该预报发布于33分钟前的21:00 UTC
风速7节,风向南转南东
温度 22°C
湿度 88%
气压 1003 hPa
能见度10公里或以上
少量云层高于4600英尺

METAR: RJOC 152100Z AUTO 16007KT 9999 FEW046 22/20 Q1003

时间: 06:33 (21:33 UTC)

预报

该预报发布于4小时和28分钟前的17:05 UTC
预报有效从15日的 18点(UTC)到 17日的 00点(UTC)
风速5节,风向
能见度10公里或以上
少量云层高于3000英尺
多云层高于5000英尺
成为
从 16日的 00点(UTC)到 16日的 02点(UTC)
风速17节,风向西转西南
成为
从 16日的 15点(UTC)到 16日的 18点(UTC)
风速7节,风向

TAF: RJOC 151705Z 1518/1700 19005KT 9999 FEW030 BKN050 BECMG 1600/1602 25017KT BECMG 1615/1618 17007KT

超过4000个机场的气象观测和天气预报(METAR&TAF报告)。

可查询的气象台以黄色和红色小点在地图上表示。

将鼠标移到小点上方,可查看气象台名称。

然后点击查看天气观测和预报。

如需切换地图:点击带黑十字的绿色按钮放大地图;点击带横线的绿色按钮缩小地图;或者点击绿色箭头查看邻近地区的地图。


METAR-TAF: